sensor_id;sensor_type;location;lat;lon;timestamp;P1;durP1;ratioP1;P2;durP2;ratioP2
4676;SDS011;2352;48.180;11.478;2022-10-17T00:01:38;5.57;;;4.00;;
4676;SDS011;2352;48.180;11.478;2022-10-17T00:04:41;3.97;;;3.67;;
4676;SDS011;2352;48.180;11.478;2022-10-17T00:07:44;3.57;;;3.27;;
4676;SDS011;2352;48.180;11.478;2022-10-17T00:10:55;3.67;;;3.37;;
4676;SDS011;2352;48.180;11.478;2022-10-17T00:13:58;5.57;;;3.70;;
4676;SDS011;2352;48.180;11.478;2022-10-17T00:17:01;5.00;;;3.77;;
4676;SDS011;2352;48.180;11.478;2022-10-17T00:20:05;2.87;;;2.67;;
4676;SDS011;2352;48.180;11.478;2022-10-17T00:23:09;3.97;;;3.67;;
4676;SDS011;2352;48.180;11.478;2022-10-17T00:26:13;3.73;;;2.20;;
4676;SDS011;2352;48.180;11.478;2022-10-17T00:29:17;2.87;;;2.67;;
4676;SDS011;2352;48.180;11.478;2022-10-17T00:32:20;2.87;;;2.67;;
4676;SDS011;2352;48.180;11.478;2022-10-17T00:35:23;2.50;;;2.27;;
4676;SDS011;2352;48.180;11.478;2022-10-17T00:38:26;4.33;;;2.97;;
4676;SDS011;2352;48.180;11.478;2022-10-17T00:41:31;4.03;;;2.40;;
4676;SDS011;2352;48.180;11.478;2022-10-17T00:48:02;2.97;;;2.77;;
4676;SDS011;2352;48.180;11.478;2022-10-17T00:51:09;2.23;;;2.10;;
4676;SDS011;2352;48.180;11.478;2022-10-17T00:54:12;2.93;;;2.73;;
4676;SDS011;2352;48.180;11.478;2022-10-17T00:57:18;4.37;;;1.80;;
4676;SDS011;2352;48.180;11.478;2022-10-17T01:00:21;2.03;;;1.93;;
4676;SDS011;2352;48.180;11.478;2022-10-17T01:03:25;5.60;;;2.23;;
4676;SDS011;2352;48.180;11.478;2022-10-17T01:06:28;2.50;;;2.30;;
4676;SDS011;2352;48.180;11.478;2022-10-17T01:09:31;2.67;;;2.07;;
4676;SDS011;2352;48.180;11.478;2022-10-17T01:12:40;2.53;;;2.07;;
4676;SDS011;2352;48.180;11.478;2022-10-17T01:16:03;4.30;;;2.20;;
4676;SDS011;2352;48.180;11.478;2022-10-17T01:19:19;2.10;;;1.90;;
4676;SDS011;2352;48.180;11.478;2022-10-17T01:22:38;2.20;;;2.00;;
4676;SDS011;2352;48.180;11.478;2022-10-17T01:25:47;2.97;;;1.70;;
4676;SDS011;2352;48.180;11.478;2022-10-17T01:29:07;1.80;;;1.70;;
4676;SDS011;2352;48.180;11.478;2022-10-17T01:32:23;6.53;;;1.93;;
4676;SDS011;2352;48.180;11.478;2022-10-17T01:35:35;2.43;;;2.23;;
4676;SDS011;2352;48.180;11.478;2022-10-17T01:38:43;6.03;;;2.10;;
4676;SDS011;2352;48.180;11.478;2022-10-17T01:41:50;3.90;;;1.67;;
4676;SDS011;2352;48.180;11.478;2022-10-17T01:44:59;2.03;;;1.87;;
4676;SDS011;2352;48.180;11.478;2022-10-17T01:48:07;2.20;;;2.00;;
4676;SDS011;2352;48.180;11.478;2022-10-17T01:51:16;2.33;;;2.13;;
4676;SDS011;2352;48.180;11.478;2022-10-17T01:54:24;2.33;;;2.13;;
4676;SDS011;2352;48.180;11.478;2022-10-17T01:57:33;2.70;;;2.00;;
4676;SDS011;2352;48.180;11.478;2022-10-17T02:00:39;2.37;;;2.00;;
4676;SDS011;2352;48.180;11.478;2022-10-17T02:03:45;2.67;;;1.90;;
4676;SDS011;2352;48.180;11.478;2022-10-17T02:06:51;1.70;;;1.60;;
4676;SDS011;2352;48.180;11.478;2022-10-17T02:09:54;1.60;;;1.50;;
4676;SDS011;2352;48.180;11.478;2022-10-17T02:12:58;2.27;;;2.07;;
4676;SDS011;2352;48.180;11.478;2022-10-17T02:16:11;2.07;;;1.97;;
4676;SDS011;2352;48.180;11.478;2022-10-17T02:19:33;2.80;;;2.00;;
4676;SDS011;2352;48.180;11.478;2022-10-17T02:22:43;5.37;;;2.13;;
4676;SDS011;2352;48.180;11.478;2022-10-17T02:25:54;3.73;;;2.30;;
4676;SDS011;2352;48.180;11.478;2022-10-17T02:29:05;2.97;;;2.17;;
4676;SDS011;2352;48.180;11.478;2022-10-17T02:32:12;2.37;;;1.83;;
4676;SDS011;2352;48.180;11.478;2022-10-17T02:35:20;1.90;;;1.63;;
4676;SDS011;2352;48.180;11.478;2022-10-17T02:38:26;2.37;;;2.07;;
4676;SDS011;2352;48.180;11.478;2022-10-17T02:41:31;2.90;;;2.10;;
4676;SDS011;2352;48.180;11.478;2022-10-17T02:44:36;3.20;;;2.33;;
4676;SDS011;2352;48.180;11.478;2022-10-17T02:47:42;5.63;;;1.90;;
4676;SDS011;2352;48.180;11.478;2022-10-17T02:50:55;2.43;;;2.23;;
4676;SDS011;2352;48.180;11.478;2022-10-17T02:54:07;2.27;;;2.07;;
4676;SDS011;2352;48.180;11.478;2022-10-17T02:57:15;2.87;;;2.67;;
4676;SDS011;2352;48.180;11.478;2022-10-17T03:00:22;2.40;;;2.20;;
4676;SDS011;2352;48.180;11.478;2022-10-17T03:03:28;8.53;;;1.80;;
4676;SDS011;2352;48.180;11.478;2022-10-17T03:06:33;2.53;;;2.33;;
4676;SDS011;2352;48.180;11.478;2022-10-17T03:09:36;2.70;;;2.23;;
4676;SDS011;2352;48.180;11.478;2022-10-17T03:12:39;2.50;;;2.30;;
4676;SDS011;2352;48.180;11.478;2022-10-17T03:15:42;2.33;;;2.13;;
4676;SDS011;2352;48.180;11.478;2022-10-17T03:18:45;3.70;;;1.70;;
4676;SDS011;2352;48.180;11.478;2022-10-17T03:21:51;4.20;;;2.27;;
4676;SDS011;2352;48.180;11.478;2022-10-17T03:24:54;1.60;;;1.50;;
4676;SDS011;2352;48.180;11.478;2022-10-17T03:27:57;4.43;;;2.33;;
4676;SDS011;2352;48.180;11.478;2022-10-17T03:31:05;7.23;;;2.77;;
4676;SDS011;2352;48.180;11.478;2022-10-17T03:34:08;2.57;;;2.40;;
4676;SDS011;2352;48.180;11.478;2022-10-17T03:37:12;2.90;;;2.60;;
4676;SDS011;2352;48.180;11.478;2022-10-17T03:40:15;2.40;;;2.20;;
4676;SDS011;2352;48.180;11.478;2022-10-17T03:43:18;5.67;;;5.20;;
4676;SDS011;2352;48.180;11.478;2022-10-17T03:46:21;10.90;;;9.77;;
4676;SDS011;2352;48.180;11.478;2022-10-17T03:49:24;10.63;;;8.80;;
4676;SDS011;2352;48.180;11.478;2022-10-17T03:52:28;10.33;;;8.27;;
4676;SDS011;2352;48.180;11.478;2022-10-17T03:55:31;5.83;;;5.33;;
4676;SDS011;2352;48.180;11.478;2022-10-17T03:58:33;6.90;;;4.30;;
4676;SDS011;2352;48.180;11.478;2022-10-17T04:01:36;3.97;;;2.63;;
4676;SDS011;2352;48.180;11.478;2022-10-17T04:04:39;3.87;;;2.40;;
4676;SDS011;2352;48.180;11.478;2022-10-17T04:07:43;4.70;;;1.80;;
4676;SDS011;2352;48.180;11.478;2022-10-17T04:10:46;6.40;;;2.50;;
4676;SDS011;2352;48.180;11.478;2022-10-17T04:13:51;3.27;;;2.40;;
4676;SDS011;2352;48.180;11.478;2022-10-17T04:16:55;3.97;;;1.93;;
4676;SDS011;2352;48.180;11.478;2022-10-17T04:19:58;2.40;;;2.20;;
4676;SDS011;2352;48.180;11.478;2022-10-17T04:23:02;3.20;;;2.00;;
4676;SDS011;2352;48.180;11.478;2022-10-17T04:26:05;4.07;;;2.50;;
4676;SDS011;2352;48.180;11.478;2022-10-17T04:29:08;2.77;;;2.57;;
4676;SDS011;2352;48.180;11.478;2022-10-17T04:32:11;3.43;;;2.50;;
4676;SDS011;2352;48.180;11.478;2022-10-17T04:35:14;2.43;;;2.07;;
4676;SDS011;2352;48.180;11.478;2022-10-17T04:38:18;5.67;;;2.40;;
4676;SDS011;2352;48.180;11.478;2022-10-17T04:41:27;4.40;;;3.47;;
4676;SDS011;2352;48.180;11.478;2022-10-17T04:44:30;5.53;;;2.83;;
4676;SDS011;2352;48.180;11.478;2022-10-17T04:47:34;3.33;;;2.73;;
4676;SDS011;2352;48.180;11.478;2022-10-17T04:50:36;7.80;;;2.90;;
4676;SDS011;2352;48.180;11.478;2022-10-17T04:53:41;3.60;;;2.20;;
4676;SDS011;2352;48.180;11.478;2022-10-17T04:56:44;2.67;;;2.47;;
4676;SDS011;2352;48.180;11.478;2022-10-17T04:59:48;2.67;;;2.47;;
4676;SDS011;2352;48.180;11.478;2022-10-17T05:02:52;3.33;;;2.47;;
4676;SDS011;2352;48.180;11.478;2022-10-17T05:05:55;3.33;;;3.03;;
4676;SDS011;2352;48.180;11.478;2022-10-17T05:08:59;2.73;;;2.53;;
4676;SDS011;2352;48.180;11.478;2022-10-17T05:12:02;2.10;;;1.70;;
4676;SDS011;2352;48.180;11.478;2022-10-17T05:15:10;6.30;;;2.93;;
4676;SDS011;2352;48.180;11.478;2022-10-17T05:18:13;2.90;;;2.70;;
4676;SDS011;2352;48.180;11.478;2022-10-17T05:21:16;3.03;;;2.80;;
4676;SDS011;2352;48.180;11.478;2022-10-17T05:24:21;4.10;;;2.20;;
4676;SDS011;2352;48.180;11.478;2022-10-17T05:27:23;3.37;;;2.77;;
4676;SDS011;2352;48.180;11.478;2022-10-17T05:30:26;2.77;;;2.47;;
4676;SDS011;2352;48.180;11.478;2022-10-17T05:33:34;4.57;;;2.60;;
4676;SDS011;2352;48.180;11.478;2022-10-17T05:36:37;2.87;;;2.47;;
4676;SDS011;2352;48.180;11.478;2022-10-17T05:39:41;3.43;;;3.10;;
4676;SDS011;2352;48.180;11.478;2022-10-17T05:42:51;3.33;;;2.57;;
4676;SDS011;2352;48.180;11.478;2022-10-17T05:45:54;4.40;;;2.57;;
4676;SDS011;2352;48.180;11.478;2022-10-17T05:48:57;5.30;;;3.50;;
4676;SDS011;2352;48.180;11.478;2022-10-17T05:52:00;3.57;;;3.27;;
4676;SDS011;2352;48.180;11.478;2022-10-17T05:55:05;4.17;;;2.67;;
4676;SDS011;2352;48.180;11.478;2022-10-17T05:58:08;7.23;;;3.50;;
4676;SDS011;2352;48.180;11.478;2022-10-17T06:01:22;3.00;;;2.43;;
4676;SDS011;2352;48.180;11.478;2022-10-17T06:04:25;3.70;;;2.97;;
4676;SDS011;2352;48.180;11.478;2022-10-17T06:07:28;3.47;;;3.17;;
4676;SDS011;2352;48.180;11.478;2022-10-17T06:10:33;3.73;;;3.33;;
4676;SDS011;2352;48.180;11.478;2022-10-17T06:13:36;3.37;;;3.07;;
4676;SDS011;2352;48.180;11.478;2022-10-17T06:16:39;4.03;;;2.80;;
4676;SDS011;2352;48.180;11.478;2022-10-17T06:19:43;3.17;;;2.87;;
4676;SDS011;2352;48.180;11.478;2022-10-17T06:22:46;3.43;;;3.20;;
4676;SDS011;2352;48.180;11.478;2022-10-17T06:25:51;3.07;;;2.83;;
4676;SDS011;2352;48.180;11.478;2022-10-17T06:28:54;4.10;;;3.43;;
4676;SDS011;2352;48.180;11.478;2022-10-17T06:31:57;3.67;;;3.37;;
4676;SDS011;2352;48.180;11.478;2022-10-17T06:35:00;3.50;;;3.20;;
4676;SDS011;2352;48.180;11.478;2022-10-17T06:38:03;3.57;;;2.93;;
4676;SDS011;2352;48.180;11.478;2022-10-17T06:41:09;4.23;;;2.80;;
4676;SDS011;2352;48.180;11.478;2022-10-17T06:44:14;4.13;;;3.03;;
4676;SDS011;2352;48.180;11.478;2022-10-17T06:47:18;2.77;;;2.50;;
4676;SDS011;2352;48.180;11.478;2022-10-17T06:50:21;3.30;;;3.00;;
4676;SDS011;2352;48.180;11.478;2022-10-17T06:53:23;3.03;;;2.50;;
4676;SDS011;2352;48.180;11.478;2022-10-17T06:56:30;3.57;;;2.67;;
4676;SDS011;2352;48.180;11.478;2022-10-17T06:59:33;5.03;;;3.63;;
4676;SDS011;2352;48.180;11.478;2022-10-17T07:02:35;3.53;;;3.23;;
4676;SDS011;2352;48.180;11.478;2022-10-17T07:05:38;3.20;;;2.67;;
4676;SDS011;2352;48.180;11.478;2022-10-17T07:08:41;5.20;;;3.27;;
4676;SDS011;2352;48.180;11.478;2022-10-17T07:11:46;3.37;;;3.07;;
4676;SDS011;2352;48.180;11.478;2022-10-17T07:14:49;3.77;;;3.37;;
4676;SDS011;2352;48.180;11.478;2022-10-17T07:17:52;3.23;;;2.93;;
4676;SDS011;2352;48.180;11.478;2022-10-17T07:20:55;3.77;;;2.70;;
4676;SDS011;2352;48.180;11.478;2022-10-17T07:23:58;4.33;;;3.00;;
4676;SDS011;2352;48.180;11.478;2022-10-17T07:27:02;8.43;;;3.43;;
4676;SDS011;2352;48.180;11.478;2022-10-17T07:30:06;3.33;;;3.03;;
4676;SDS011;2352;48.180;11.478;2022-10-17T07:33:10;7.23;;;3.30;;
4676;SDS011;2352;48.180;11.478;2022-10-17T07:36:13;5.27;;;3.23;;
4676;SDS011;2352;48.180;11.478;2022-10-17T07:39:16;5.10;;;3.47;;
4676;SDS011;2352;48.180;11.478;2022-10-17T07:42:21;8.13;;;3.40;;
4676;SDS011;2352;48.180;11.478;2022-10-17T07:45:24;2.97;;;2.77;;
4676;SDS011;2352;48.180;11.478;2022-10-17T07:48:28;6.00;;;3.40;;
4676;SDS011;2352;48.180;11.478;2022-10-17T07:51:31;3.67;;;3.37;;
4676;SDS011;2352;48.180;11.478;2022-10-17T07:54:34;3.20;;;2.90;;
4676;SDS011;2352;48.180;11.478;2022-10-17T07:57:38;3.30;;;2.93;;
4676;SDS011;2352;48.180;11.478;2022-10-17T08:00:41;3.23;;;2.70;;
4676;SDS011;2352;48.180;11.478;2022-10-17T08:03:44;2.80;;;2.57;;
4676;SDS011;2352;48.180;11.478;2022-10-17T08:06:48;4.73;;;2.83;;
4676;SDS011;2352;48.180;11.478;2022-10-17T08:10:00;2.40;;;2.27;;
4676;SDS011;2352;48.180;11.478;2022-10-17T08:13:05;3.20;;;2.90;;
4676;SDS011;2352;48.180;11.478;2022-10-17T08:16:09;6.03;;;3.03;;
4676;SDS011;2352;48.180;11.478;2022-10-17T08:19:13;2.60;;;2.03;;
4676;SDS011;2352;48.180;11.478;2022-10-17T08:22:16;2.60;;;2.40;;
4676;SDS011;2352;48.180;11.478;2022-10-17T08:25:20;3.20;;;2.40;;
4676;SDS011;2352;48.180;11.478;2022-10-17T08:28:25;2.57;;;2.37;;
4676;SDS011;2352;48.180;11.478;2022-10-17T08:31:28;4.27;;;2.40;;
4676;SDS011;2352;48.180;11.478;2022-10-17T08:34:31;2.70;;;2.50;;
4676;SDS011;2352;48.180;11.478;2022-10-17T08:37:34;2.40;;;1.97;;
4676;SDS011;2352;48.180;11.478;2022-10-17T08:40:37;2.33;;;2.13;;
4676;SDS011;2352;48.180;11.478;2022-10-17T08:43:50;2.73;;;1.80;;
4676;SDS011;2352;48.180;11.478;2022-10-17T08:47:04;1.70;;;1.60;;
4676;SDS011;2352;48.180;11.478;2022-10-17T08:50:13;3.90;;;2.00;;
4676;SDS011;2352;48.180;11.478;2022-10-17T08:53:23;1.83;;;1.73;;
4676;SDS011;2352;48.180;11.478;2022-10-17T08:56:32;2.67;;;2.47;;
4676;SDS011;2352;48.180;11.478;2022-10-17T08:59:56;3.97;;;2.53;;
4676;SDS011;2352;48.180;11.478;2022-10-17T09:03:04;5.20;;;2.27;;
4676;SDS011;2352;48.180;11.478;2022-10-17T09:06:17;2.53;;;2.33;;
4676;SDS011;2352;48.180;11.478;2022-10-17T09:09:29;1.57;;;1.47;;
4676;SDS011;2352;48.180;11.478;2022-10-17T09:12:40;1.93;;;1.83;;
4676;SDS011;2352;48.180;11.478;2022-10-17T09:15:58;2.23;;;2.03;;
4676;SDS011;2352;48.180;11.478;2022-10-17T09:19:14;1.93;;;1.83;;
4676;SDS011;2352;48.180;11.478;2022-10-17T09:22:22;2.23;;;2.00;;
4676;SDS011;2352;48.180;11.478;2022-10-17T09:25:31;2.27;;;2.07;;
4676;SDS011;2352;48.180;11.478;2022-10-17T09:28:40;3.50;;;2.00;;
4676;SDS011;2352;48.180;11.478;2022-10-17T09:31:46;1.70;;;1.60;;
4676;SDS011;2352;48.180;11.478;2022-10-17T09:34:55;2.40;;;2.20;;
4676;SDS011;2352;48.180;11.478;2022-10-17T09:37:58;2.13;;;1.90;;
4676;SDS011;2352;48.180;11.478;2022-10-17T09:41:01;2.80;;;1.70;;
4676;SDS011;2352;48.180;11.478;2022-10-17T09:44:27;2.03;;;1.87;;
4676;SDS011;2352;48.180;11.478;2022-10-17T09:47:36;4.43;;;2.27;;
4676;SDS011;2352;48.180;11.478;2022-10-17T09:50:44;3.00;;;2.30;;
4676;SDS011;2352;48.180;11.478;2022-10-17T09:54:10;1.80;;;1.63;;
4676;SDS011;2352;48.180;11.478;2022-10-17T09:57:20;8.03;;;2.83;;
4676;SDS011;2352;48.180;11.478;2022-10-17T10:00:24;2.33;;;1.87;;
4676;SDS011;2352;48.180;11.478;2022-10-17T10:03:30;1.80;;;1.70;;
4676;SDS011;2352;48.180;11.478;2022-10-17T10:06:33;2.17;;;1.98;;
4676;SDS011;2352;48.180;11.478;2022-10-17T10:09:37;2.42;;;1.77;;
4676;SDS011;2352;48.180;11.478;2022-10-17T10:12:41;1.55;;;1.42;;
4676;SDS011;2352;48.180;11.478;2022-10-17T10:16:15;1.88;;;1.77;;
4676;SDS011;2352;48.180;11.478;2022-10-17T10:19:27;2.70;;;1.42;;
4676;SDS011;2352;48.180;11.478;2022-10-17T10:22:32;2.40;;;1.40;;
4676;SDS011;2352;48.180;11.478;2022-10-17T10:25:35;3.45;;;2.30;;
4676;SDS011;2352;48.180;11.478;2022-10-17T10:28:38;1.75;;;1.65;;
4676;SDS011;2352;48.180;11.478;2022-10-17T10:31:42;2.30;;;1.67;;
4676;SDS011;2352;48.180;11.478;2022-10-17T10:34:47;2.85;;;2.05;;
4676;SDS011;2352;48.180;11.478;2022-10-17T10:37:54;1.85;;;1.73;;
4676;SDS011;2352;48.180;11.478;2022-10-17T10:41:00;4.22;;;1.90;;
4676;SDS011;2352;48.180;11.478;2022-10-17T10:44:05;2.75;;;1.83;;
4676;SDS011;2352;48.180;11.478;2022-10-17T10:47:16;1.90;;;1.80;;
4676;SDS011;2352;48.180;11.478;2022-10-17T10:50:25;1.83;;;1.60;;
4676;SDS011;2352;48.180;11.478;2022-10-17T10:53:40;2.00;;;1.80;;
4676;SDS011;2352;48.180;11.478;2022-10-17T10:56:48;2.13;;;1.15;;
4676;SDS011;2352;48.180;11.478;2022-10-17T10:59:55;3.05;;;1.55;;
4676;SDS011;2352;48.180;11.478;2022-10-17T11:03:05;1.45;;;1.35;;
4676;SDS011;2352;48.180;11.478;2022-10-17T11:06:18;3.75;;;2.10;;
4676;SDS011;2352;48.180;11.478;2022-10-17T11:09:31;2.55;;;1.60;;
4676;SDS011;2352;48.180;11.478;2022-10-17T11:12:44;3.05;;;1.63;;
4676;SDS011;2352;48.180;11.478;2022-10-17T11:15:52;1.98;;;1.83;;
4676;SDS011;2352;48.180;11.478;2022-10-17T11:19:03;1.55;;;1.45;;
4676;SDS011;2352;48.180;11.478;2022-10-17T11:22:16;1.80;;;1.50;;
4676;SDS011;2352;48.180;11.478;2022-10-17T11:25:31;1.05;;;1.05;;
4676;SDS011;2352;48.180;11.478;2022-10-17T11:28:36;3.05;;;1.30;;
4676;SDS011;2352;48.180;11.478;2022-10-17T11:31:40;1.63;;;1.33;;
4676;SDS011;2352;48.180;11.478;2022-10-17T11:34:46;1.92;;;1.80;;
4676;SDS011;2352;48.180;11.478;2022-10-17T11:37:57;2.03;;;1.60;;
4676;SDS011;2352;48.180;11.478;2022-10-17T11:41:05;1.73;;;1.63;;
4676;SDS011;2352;48.180;11.478;2022-10-17T11:44:15;1.77;;;1.48;;
4676;SDS011;2352;48.180;11.478;2022-10-17T11:47:26;1.50;;;1.40;;
4676;SDS011;2352;48.180;11.478;2022-10-17T11:50:34;5.13;;;1.92;;
4676;SDS011;2352;48.180;11.478;2022-10-17T11:54:03;2.65;;;1.73;;
4676;SDS011;2352;48.180;11.478;2022-10-17T11:57:20;0.95;;;0.90;;
4676;SDS011;2352;48.180;11.478;2022-10-17T12:00:41;2.60;;;1.48;;
4676;SDS011;2352;48.180;11.478;2022-10-17T12:03:56;1.75;;;1.45;;
4676;SDS011;2352;48.180;11.478;2022-10-17T12:07:08;1.67;;;1.58;;
4676;SDS011;2352;48.180;11.478;2022-10-17T12:10:19;1.33;;;1.23;;
4676;SDS011;2352;48.180;11.478;2022-10-17T12:13:45;4.22;;;1.67;;
4676;SDS011;2352;48.180;11.478;2022-10-17T12:16:50;2.15;;;1.33;;
4676;SDS011;2352;48.180;11.478;2022-10-17T12:23:26;1.20;;;1.10;;
4676;SDS011;2352;48.180;11.478;2022-10-17T12:26:31;1.00;;;1.00;;
4676;SDS011;2352;48.180;11.478;2022-10-17T12:29:34;1.52;;;1.42;;
4676;SDS011;2352;48.180;11.478;2022-10-17T12:32:39;1.20;;;1.20;;
4676;SDS011;2352;48.180;11.478;2022-10-17T12:39:40;1.63;;;1.35;;
4676;SDS011;2352;48.180;11.478;2022-10-17T12:42:46;1.23;;;1.20;;
4676;SDS011;2352;48.180;11.478;2022-10-17T12:45:51;1.20;;;1.20;;
4676;SDS011;2352;48.180;11.478;2022-10-17T12:48:59;1.55;;;1.45;;
4676;SDS011;2352;48.180;11.478;2022-10-17T12:55:30;1.52;;;1.40;;
4676;SDS011;2352;48.180;11.478;2022-10-17T12:58:34;1.50;;;1.40;;
4676;SDS011;2352;48.180;11.478;2022-10-17T13:01:39;1.13;;;1.05;;
4676;SDS011;2352;48.180;11.478;2022-10-17T13:04:47;1.20;;;1.10;;
4676;SDS011;2352;48.180;11.478;2022-10-17T13:07:51;0.98;;;0.98;;
4676;SDS011;2352;48.180;11.478;2022-10-17T13:10:56;2.28;;;1.25;;
4676;SDS011;2352;48.180;11.478;2022-10-17T13:14:01;1.50;;;1.40;;
4676;SDS011;2352;48.180;11.478;2022-10-17T13:17:19;2.38;;;1.40;;
4676;SDS011;2352;48.180;11.478;2022-10-17T13:20:25;2.25;;;1.10;;
4676;SDS011;2352;48.180;11.478;2022-10-17T13:23:32;0.82;;;0.82;;
4676;SDS011;2352;48.180;11.478;2022-10-17T13:26:36;1.30;;;1.10;;
4676;SDS011;2352;48.180;11.478;2022-10-17T13:29:44;1.75;;;0.95;;
4676;SDS011;2352;48.180;11.478;2022-10-17T13:32:47;1.52;;;1.42;;
4676;SDS011;2352;48.180;11.478;2022-10-17T13:35:49;3.60;;;1.45;;
4676;SDS011;2352;48.180;11.478;2022-10-17T13:39:04;1.83;;;1.05;;
4676;SDS011;2352;48.180;11.478;2022-10-17T13:42:16;1.30;;;0.88;;
4676;SDS011;2352;48.180;11.478;2022-10-17T13:45:27;1.65;;;1.55;;
4676;SDS011;2352;48.180;11.478;2022-10-17T13:48:33;1.15;;;1.15;;
4676;SDS011;2352;48.180;11.478;2022-10-17T13:51:41;1.20;;;1.10;;
4676;SDS011;2352;48.180;11.478;2022-10-17T13:54:46;2.05;;;1.13;;
4676;SDS011;2352;48.180;11.478;2022-10-17T13:57:51;5.15;;;1.15;;
4676;SDS011;2352;48.180;11.478;2022-10-17T14:00:55;1.17;;;1.08;;
4676;SDS011;2352;48.180;11.478;2022-10-17T14:03:59;0.90;;;0.90;;
4676;SDS011;2352;48.180;11.478;2022-10-17T14:07:18;1.67;;;1.40;;
4676;SDS011;2352;48.180;11.478;2022-10-17T14:10:30;5.10;;;1.60;;
4676;SDS011;2352;48.180;11.478;2022-10-17T14:13:34;1.35;;;1.25;;
4676;SDS011;2352;48.180;11.478;2022-10-17T14:16:39;1.27;;;1.15;;
4676;SDS011;2352;48.180;11.478;2022-10-17T14:19:44;5.88;;;1.25;;
4676;SDS011;2352;48.180;11.478;2022-10-17T14:26:44;1.73;;;1.27;;
4676;SDS011;2352;48.180;11.478;2022-10-17T14:29:49;1.20;;;1.10;;
4676;SDS011;2352;48.180;11.478;2022-10-17T14:32:56;1.52;;;1.42;;
4676;SDS011;2352;48.180;11.478;2022-10-17T14:36:02;1.88;;;1.73;;
4676;SDS011;2352;48.180;11.478;2022-10-17T14:39:06;1.35;;;1.25;;
4676;SDS011;2352;48.180;11.478;2022-10-17T14:42:20;1.48;;;1.38;;
4676;SDS011;2352;48.180;11.478;2022-10-17T14:45:24;1.65;;;1.50;;
4676;SDS011;2352;48.180;11.478;2022-10-17T14:48:31;1.10;;;1.10;;
4676;SDS011;2352;48.180;11.478;2022-10-17T14:51:34;1.38;;;1.17;;
4676;SDS011;2352;48.180;11.478;2022-10-17T14:54:58;5.07;;;1.08;;
4676;SDS011;2352;48.180;11.478;2022-10-17T14:58:14;1.60;;;1.15;;
4676;SDS011;2352;48.180;11.478;2022-10-17T15:01:18;1.20;;;0.90;;
4676;SDS011;2352;48.180;11.478;2022-10-17T15:04:22;1.65;;;1.55;;
4676;SDS011;2352;48.180;11.478;2022-10-17T15:07:25;1.15;;;1.10;;
4676;SDS011;2352;48.180;11.478;2022-10-17T15:10:32;2.80;;;1.02;;
4676;SDS011;2352;48.180;11.478;2022-10-17T15:13:36;2.78;;;1.20;;
4676;SDS011;2352;48.180;11.478;2022-10-17T15:16:46;2.20;;;1.75;;
4676;SDS011;2352;48.180;11.478;2022-10-17T15:19:50;2.15;;;1.10;;
4676;SDS011;2352;48.180;11.478;2022-10-17T15:22:54;1.70;;;1.40;;
4676;SDS011;2352;48.180;11.478;2022-10-17T15:25:58;1.48;;;1.38;;
4676;SDS011;2352;48.180;11.478;2022-10-17T15:29:01;3.33;;;1.20;;
4676;SDS011;2352;48.180;11.478;2022-10-17T15:32:05;2.70;;;1.42;;
4676;SDS011;2352;48.180;11.478;2022-10-17T15:35:09;7.10;;;1.88;;
4676;SDS011;2352;48.180;11.478;2022-10-17T15:38:13;3.30;;;2.20;;
4676;SDS011;2352;48.180;11.478;2022-10-17T15:41:20;4.95;;;1.50;;
4676;SDS011;2352;48.180;11.478;2022-10-17T15:44:24;7.63;;;1.52;;
4676;SDS011;2352;48.180;11.478;2022-10-17T15:47:27;1.98;;;1.73;;
4676;SDS011;2352;48.180;11.478;2022-10-17T15:50:35;2.38;;;1.60;;
4676;SDS011;2352;48.180;11.478;2022-10-17T15:53:38;8.18;;;1.45;;
4676;SDS011;2352;48.180;11.478;2022-10-17T15:56:41;1.75;;;1.63;;
4676;SDS011;2352;48.180;11.478;2022-10-17T15:59:47;2.67;;;1.52;;
4676;SDS011;2352;48.180;11.478;2022-10-17T16:02:51;2.70;;;1.35;;
4676;SDS011;2352;48.180;11.478;2022-10-17T16:05:55;3.38;;;1.70;;
4676;SDS011;2352;48.180;11.478;2022-10-17T16:08:59;2.95;;;1.90;;
4676;SDS011;2352;48.180;11.478;2022-10-17T16:12:02;1.48;;;1.27;;
4676;SDS011;2352;48.180;11.478;2022-10-17T16:15:06;2.38;;;2.17;;
4676;SDS011;2352;48.180;11.478;2022-10-17T16:18:14;2.70;;;2.50;;
4676;SDS011;2352;48.180;11.478;2022-10-17T16:21:18;5.63;;;2.22;;
4676;SDS011;2352;48.180;11.478;2022-10-17T16:24:23;2.53;;;2.33;;
4676;SDS011;2352;48.180;11.478;2022-10-17T16:27:26;3.03;;;2.20;;
4676;SDS011;2352;48.180;11.478;2022-10-17T16:30:29;7.35;;;2.70;;
4676;SDS011;2352;48.180;11.478;2022-10-17T16:33:33;5.13;;;3.20;;
4676;SDS011;2352;48.180;11.478;2022-10-17T16:36:37;4.05;;;2.50;;
4676;SDS011;2352;48.180;11.478;2022-10-17T16:39:40;3.70;;;2.28;;
4676;SDS011;2352;48.180;11.478;2022-10-17T16:42:49;7.65;;;4.40;;
4676;SDS011;2352;48.180;11.478;2022-10-17T16:45:52;2.95;;;2.50;;
4676;SDS011;2352;48.180;11.478;2022-10-17T16:48:56;3.38;;;2.90;;
4676;SDS011;2352;48.180;11.478;2022-10-17T16:52:01;7.25;;;3.53;;
4676;SDS011;2352;48.180;11.478;2022-10-17T16:55:04;3.95;;;3.63;;
4676;SDS011;2352;48.180;11.478;2022-10-17T16:58:07;9.38;;;4.63;;
4676;SDS011;2352;48.180;11.478;2022-10-17T17:01:11;4.45;;;3.63;;
4676;SDS011;2352;48.180;11.478;2022-10-17T17:04:16;6.47;;;4.13;;
4676;SDS011;2352;48.180;11.478;2022-10-17T17:07:20;11.57;;;3.92;;
4676;SDS011;2352;48.180;11.478;2022-10-17T17:10:24;3.55;;;3.20;;
4676;SDS011;2352;48.180;11.478;2022-10-17T17:13:27;6.35;;;4.18;;
4676;SDS011;2352;48.180;11.478;2022-10-17T17:16:31;3.38;;;2.58;;
4676;SDS011;2352;48.180;11.478;2022-10-17T17:19:35;4.18;;;3.78;;
4676;SDS011;2352;48.180;11.478;2022-10-17T17:22:39;8.07;;;4.18;;
4676;SDS011;2352;48.180;11.478;2022-10-17T17:25:42;7.45;;;4.22;;
4676;SDS011;2352;48.180;11.478;2022-10-17T17:28:45;9.20;;;4.25;;
4676;SDS011;2352;48.180;11.478;2022-10-17T17:31:49;5.60;;;4.20;;
4676;SDS011;2352;48.180;11.478;2022-10-17T17:34:52;4.07;;;3.70;;
4676;SDS011;2352;48.180;11.478;2022-10-17T17:37:56;3.92;;;3.63;;
4676;SDS011;2352;48.180;11.478;2022-10-17T17:40:59;4.88;;;4.28;;
4676;SDS011;2352;48.180;11.478;2022-10-17T17:44:03;7.32;;;5.18;;
4676;SDS011;2352;48.180;11.478;2022-10-17T17:47:06;6.40;;;5.03;;
4676;SDS011;2352;48.180;11.478;2022-10-17T17:50:09;5.47;;;5.07;;
4676;SDS011;2352;48.180;11.478;2022-10-17T17:53:14;5.23;;;4.83;;
4676;SDS011;2352;48.180;11.478;2022-10-17T17:56:18;6.05;;;5.45;;
4676;SDS011;2352;48.180;11.478;2022-10-17T17:59:22;6.18;;;5.68;;
4676;SDS011;2352;48.180;11.478;2022-10-17T18:02:25;6.35;;;5.85;;
4676;SDS011;2352;48.180;11.478;2022-10-17T18:05:28;7.15;;;6.60;;
4676;SDS011;2352;48.180;11.478;2022-10-17T18:08:33;8.32;;;6.68;;
4676;SDS011;2352;48.180;11.478;2022-10-17T18:11:37;8.67;;;6.47;;
4676;SDS011;2352;48.180;11.478;2022-10-17T18:14:40;6.87;;;6.30;;
4676;SDS011;2352;48.180;11.478;2022-10-17T18:17:43;6.97;;;6.47;;
4676;SDS011;2352;48.180;11.478;2022-10-17T18:20:45;7.27;;;6.70;;
4676;SDS011;2352;48.180;11.478;2022-10-17T18:23:50;6.27;;;5.77;;
4676;SDS011;2352;48.180;11.478;2022-10-17T18:26:53;7.07;;;5.30;;
4676;SDS011;2352;48.180;11.478;2022-10-17T18:29:59;6.40;;;5.90;;
4676;SDS011;2352;48.180;11.478;2022-10-17T18:33:03;8.67;;;6.23;;
4676;SDS011;2352;48.180;11.478;2022-10-17T18:36:07;6.37;;;5.67;;
4676;SDS011;2352;48.180;11.478;2022-10-17T18:39:12;6.33;;;5.73;;
4676;SDS011;2352;48.180;11.478;2022-10-17T18:42:15;5.57;;;4.97;;
4676;SDS011;2352;48.180;11.478;2022-10-17T18:45:18;5.27;;;4.83;;
4676;SDS011;2352;48.180;11.478;2022-10-17T18:48:22;4.73;;;4.10;;
4676;SDS011;2352;48.180;11.478;2022-10-17T18:51:25;8.80;;;5.00;;
4676;SDS011;2352;48.180;11.478;2022-10-17T18:54:29;4.70;;;4.30;;
4676;SDS011;2352;48.180;11.478;2022-10-17T18:57:33;5.47;;;4.97;;
4676;SDS011;2352;48.180;11.478;2022-10-17T19:00:36;5.77;;;4.77;;
4676;SDS011;2352;48.180;11.478;2022-10-17T19:03:39;5.87;;;5.37;;
4676;SDS011;2352;48.180;11.478;2022-10-17T19:06:43;6.27;;;4.97;;
4676;SDS011;2352;48.180;11.478;2022-10-17T19:09:47;7.90;;;5.20;;
4676;SDS011;2352;48.180;11.478;2022-10-17T19:12:51;4.70;;;4.40;;
4676;SDS011;2352;48.180;11.478;2022-10-17T19:15:54;5.47;;;4.97;;